Time;durP1;ratioP1;P1;durP2;ratioP2;P2;SDS_P1;SDS_P2;PMS_P1;PMS_P2;Temp;Humidity;BMP_temperature;BMP_pressure;BME280_temperature;BME280_humidity;BME280_pressure;Samples;Min_cycle;Max_cycle;Signal;HPM_P1;HPM_P2
2022/08/30 00:01:05;;;;;;;12.02;4.75;;;;;;;16.88;100.00;101678.78;5074063;28;20028;-77
2022/08/30 00:03:37;;;;;;;10.35;4.38;;;;;;;16.87;100.00;101674.28;5073001;28;20037;-78
2022/08/30 00:06:05;;;;;;;13.65;4.25;;;;;;;16.82;100.00;101675.66;5067387;28;20082;-77
2022/08/30 00:08:32;;;;;;;15.95;5.00;;;;;;;16.86;100.00;101669.75;5049283;28;20056;-77
2022/08/30 00:10:58;;;;;;;8.82;4.70;;;;;;;16.83;100.00;101663.59;5059204;28;20025;-78
2022/08/30 00:13:24;;;;;;;16.77;4.78;;;;;;;16.81;100.00;101660.97;5052579;28;20110;-78
2022/08/30 00:15:51;;;;;;;8.93;4.32;;;;;;;16.82;100.00;101667.38;5066504;28;20066;-77
2022/08/30 00:18:23;;;;;;;15.35;5.25;;;;;;;16.80;100.00;101661.97;5054087;28;20439;-77
2022/08/30 00:20:58;;;;;;;11.50;4.80;;;;;;;16.81;100.00;101666.50;5070044;28;20131;-77
2022/08/30 00:23:34;;;;;;;13.63;5.55;;;;;;;16.69;100.00;101653.81;5045376;28;20202;-77
2022/08/30 00:26:06;;;;;;;14.88;4.93;;;;;;;16.70;100.00;101650.91;5058819;28;20495;-77
2022/08/30 00:28:41;;;;;;;12.30;5.43;;;;;;;16.78;100.00;101666.78;5063301;28;20032;-78
2022/08/30 00:31:11;;;;;;;13.45;5.28;;;;;;;16.76;100.00;101671.59;5072964;28;20020;-77
2022/08/30 00:33:42;;;;;;;8.65;5.03;;;;;;;16.73;100.00;101674.63;5057743;28;20032;-77
2022/08/30 00:36:14;;;;;;;15.13;5.43;;;;;;;16.77;100.00;101678.00;5058975;28;20056;-77
2022/08/30 00:38:41;;;;;;;10.50;5.32;;;;;;;16.75;100.00;101674.50;5042606;28;20418;-77
2022/08/30 00:41:08;;;;;;;10.32;5.47;;;;;;;16.75;100.00;101669.84;5071435;28;20146;-78
2022/08/30 00:43:35;;;;;;;14.95;6.55;;;;;;;16.75;100.00;101671.75;5036861;28;20049;-77
2022/08/30 00:46:07;;;;;;;15.45;5.90;;;;;;;16.75;100.00;101668.97;5065949;28;20065;-78
2022/08/30 00:48:46;;;;;;;14.98;5.32;;;;;;;16.77;100.00;101666.94;5062786;28;20025;-77
2022/08/30 00:51:17;;;;;;;20.33;5.72;;;;;;;16.79;100.00;101665.78;5063293;28;20049;-77
2022/08/30 00:53:48;;;;;;;9.73;5.47;;;;;;;16.79;100.00;101662.13;5052829;28;20033;-77
2022/08/30 00:56:17;;;;;;;13.85;5.90;;;;;;;16.68;100.00;101652.94;5057292;28;20059;-77
2022/08/30 00:58:47;;;;;;;18.45;5.85;;;;;;;16.72;100.00;101651.66;5070073;28;20037;-76
2022/08/30 01:01:14;;;;;;;10.63;5.60;;;;;;;16.71;100.00;101660.94;5057357;28;20124;-78
2022/08/30 01:03:40;;;;;;;15.27;5.80;;;;;;;16.65;100.00;101661.50;5021358;28;20060;-78
2022/08/30 01:06:07;;;;;;;13.50;5.63;;;;;;;16.68;100.00;101663.13;5058287;28;20052;-76
2022/08/30 01:08:38;;;;;;;13.48;5.68;;;;;;;16.72;100.00;101673.78;5056595;28;20480;-78
2022/08/30 01:11:04;;;;;;;13.73;6.03;;;;;;;16.71;100.00;101682.22;5086864;28;20496;-77
2022/08/30 01:13:33;;;;;;;13.93;5.82;;;;;;;16.67;100.00;101677.97;5067953;28;20033;-78
2022/08/30 01:15:59;;;;;;;13.88;6.35;;;;;;;16.68;100.00;101680.59;5067749;28;20048;-77
2022/08/30 01:18:28;;;;;;;15.27;6.05;;;;;;;16.67;100.00;101676.06;5048108;28;20115;-77
2022/08/30 01:21:06;;;;;;;12.70;6.68;;;;;;;16.76;100.00;101693.72;5054386;28;20435;-77
2022/08/30 01:23:36;;;;;;;16.90;6.40;;;;;;;16.78;100.00;101688.06;5053356;28;20029;-78
2022/08/30 01:26:04;;;;;;;21.08;7.03;;;;;;;16.80;100.00;101697.94;5050775;28;20028;-77
2022/08/30 01:28:32;;;;;;;16.00;6.63;;;;;;;16.81;100.00;101691.41;5072251;28;20036;-77
2022/08/30 01:30:58;;;;;;;14.38;6.75;;;;;;;16.80;100.00;101686.88;5057329;28;20036;-77
2022/08/30 01:33:24;;;;;;;17.40;7.10;;;;;;;16.82;100.00;101687.63;5047734;28;20439;-77
2022/08/30 01:35:55;;;;;;;17.67;7.00;;;;;;;16.85;100.00;101681.81;5061507;28;20045;-77
2022/08/30 01:38:33;;;;;;;21.95;6.97;;;;;;;16.85;100.00;101669.88;5066088;28;20036;-77
2022/08/30 01:41:13;;;;;;;13.63;6.93;;;;;;;16.75;100.00;101672.59;5053781;28;20033;-78
2022/08/30 01:43:41;;;;;;;18.85;7.57;;;;;;;16.66;100.00;101673.44;5053091;28;20021;-78
2022/08/30 01:46:10;;;;;;;19.83;7.68;;;;;;;16.68;100.00;101682.50;5038562;28;20029;-77
2022/08/30 01:48:39;;;;;;;17.80;8.23;;;;;;;16.68;100.00;101688.88;5072106;28;20028;-77
2022/08/30 01:51:08;;;;;;;18.88;8.43;;;;;;;16.68;100.00;101682.50;5045333;28;20071;-77
2022/08/30 01:53:35;;;;;;;22.90;9.23;;;;;;;16.69;100.00;101682.34;5059210;28;20028;-77
2022/08/30 01:56:00;;;;;;;20.75;8.38;;;;;;;16.69;100.00;101676.81;5064541;28;20033;-77
2022/08/30 01:58:27;;;;;;;16.67;8.55;;;;;;;16.62;100.00;101675.63;5071377;28;20094;-77
2022/08/30 02:00:56;;;;;;;30.30;8.55;;;;;;;16.58;100.00;101685.22;5047642;28;20057;-77
2022/08/30 02:03:25;;;;;;;17.42;8.68;;;;;;;16.53;100.00;101682.00;5064121;28;20040;-77
2022/08/30 02:06:02;;;;;;;20.45;9.30;;;;;;;16.46;100.00;101681.69;5061240;28;20499;-77
2022/08/30 02:08:30;;;;;;;24.85;10.48;;;;;;;16.41;100.00;101677.59;5075844;28;20020;-77
2022/08/30 02:10:58;;;;;;;20.85;9.73;;;;;;;16.43;100.00;101673.69;5063065;28;20031;-77
2022/08/30 02:13:28;;;;;;;22.25;9.57;;;;;;;16.40;100.00;101664.75;5065519;28;20041;-77
2022/08/30 02:15:54;;;;;;;19.95;9.90;;;;;;;16.33;100.00;101662.59;5063534;28;20435;-77
2022/08/30 02:18:21;;;;;;;23.77;9.90;;;;;;;16.30;100.00;101660.09;5069257;28;20226;-77
2022/08/30 02:20:48;;;;;;;18.70;10.13;;;;;;;16.22;100.00;101656.28;5032212;28;20032;-77
2022/08/30 02:23:17;;;;;;;23.75;10.73;;;;;;;16.16;100.00;101652.16;5064878;28;20063;-77
2022/08/30 02:25:44;;;;;;;24.30;9.75;;;;;;;16.13;100.00;101647.81;5055892;28;20391;-77
2022/08/30 02:28:15;;;;;;;19.95;10.73;;;;;;;16.08;100.00;101657.50;5055790;28;20049;-77
2022/08/30 02:30:47;;;;;;;30.70;12.80;;;;;;;16.04;100.00;101659.69;5054807;28;20033;-77
2022/08/30 02:33:14;;;;;;;20.50;11.07;;;;;;;16.07;100.00;101659.41;5054018;28;20488;-77
2022/08/30 02:35:40;;;;;;;25.98;11.57;;;;;;;15.99;100.00;101657.31;5053988;28;20103;-77
2022/08/30 02:38:07;;;;;;;20.45;11.02;;;;;;;16.00;100.00;101666.47;5045396;28;20139;-77
2022/08/30 02:40:33;;;;;;;24.23;11.85;;;;;;;15.96;100.00;101662.25;5072361;28;20025;-77
2022/08/30 02:42:58;;;;;;;22.05;11.55;;;;;;;15.96;100.00;101668.66;5072685;28;20395;-77
2022/08/30 02:45:26;;;;;;;22.42;10.90;;;;;;;15.89;100.00;101661.94;5046989;28;20033;-77
2022/08/30 02:47:52;;;;;;;24.60;12.07;;;;;;;15.83;100.00;101656.06;5062969;28;20028;-77
2022/08/30 02:50:26;;;;;;;22.95;11.98;;;;;;;15.87;100.00;101660.31;5053715;28;20033;-77
2022/08/30 02:52:52;;;;;;;20.80;11.63;;;;;;;15.85;100.00;101657.69;5053433;28;20128;-77
2022/08/30 02:55:25;;;;;;;29.85;12.25;;;;;;;15.94;100.00;101656.00;5047702;28;20043;-77
2022/08/30 02:58:01;;;;;;;27.00;13.27;;;;;;;15.89;100.00;101650.88;5055043;28;20443;-77
2022/08/30 03:00:27;;;;;;;24.63;12.20;;;;;;;15.92;100.00;101653.38;5055355;28;20086;-77
2022/08/30 03:02:52;;;;;;;30.73;13.20;;;;;;;15.89;100.00;101648.13;5072159;28;20492;-77
2022/08/30 03:05:24;;;;;;;22.35;12.05;;;;;;;15.88;100.00;101648.25;5056602;28;20480;-77
2022/08/30 03:07:51;;;;;;;27.90;12.20;;;;;;;15.88;100.00;101653.78;5058134;28;20045;-77
2022/08/30 03:10:18;;;;;;;27.73;12.80;;;;;;;15.82;100.00;101646.91;5055085;28;20033;-77
2022/08/30 03:12:46;;;;;;;28.02;13.38;;;;;;;15.75;100.00;101642.91;5058247;28;20036;-77
2022/08/30 03:15:24;;;;;;;29.70;13.85;;;;;;;15.74;100.00;101647.56;5064085;28;20108;-77
2022/08/30 03:17:51;;;;;;;22.63;13.10;;;;;;;15.77;100.00;101652.84;5072920;28;20047;-77
2022/08/30 03:20:19;;;;;;;22.92;13.35;;;;;;;15.70;100.00;101646.06;5054487;28;20067;-77
2022/08/30 03:22:44;;;;;;;24.02;13.63;;;;;;;15.76;100.00;101650.22;5062543;28;20029;-77
2022/08/30 03:25:14;;;;;;;28.80;13.57;;;;;;;15.74;100.00;101647.56;5054331;28;20064;-77
2022/08/30 03:27:50;;;;;;;25.65;13.32;;;;;;;15.74;100.00;101647.56;5074293;28;20028;-77
2022/08/30 03:30:17;;;;;;;23.35;13.30;;;;;;;15.81;100.00;101642.41;5073238;28;20041;-77
2022/08/30 03:32:46;;;;;;;30.02;14.57;;;;;;;15.76;100.00;101650.22;5057179;28;20035;-77
2022/08/30 03:35:13;;;;;;;30.08;14.73;;;;;;;15.72;100.00;101654.22;5055149;28;20044;-77
2022/08/30 03:37:39;;;;;;;26.55;13.95;;;;;;;15.76;100.00;101656.63;5059420;28;20488;-77
2022/08/30 03:40:09;;;;;;;32.25;16.55;;;;;;;15.81;100.00;101658.97;5053286;28;20071;-77
2022/08/30 03:42:34;;;;;;;30.50;14.43;;;;;;;15.83;100.00;101651.41;5054898;28;20477;-77
2022/08/30 03:45:03;;;;;;;32.42;15.80;;;;;;;15.80;100.00;101652.56;5056268;28;20132;-77
2022/08/30 03:47:31;;;;;;;31.02;16.05;;;;;;;15.73;100.00;101645.81;5052806;28;20064;-77
2022/08/30 03:49:56;;;;;;;36.40;18.08;;;;;;;15.69;100.00;101649.88;5059518;28;20047;-77
2022/08/30 03:52:22;;;;;;;26.90;17.13;;;;;;;15.61;100.00;101647.78;5073141;28;20538;-77
2022/08/30 03:54:55;;;;;;;32.15;17.05;;;;;;;15.57;100.00;101651.78;5060090;28;20036;-77
2022/08/30 03:57:21;;;;;;;39.28;17.42;;;;;;;15.55;100.00;101652.97;5055621;28;20045;-77
2022/08/30 03:59:50;;;;;;;31.65;17.02;;;;;;;15.55;100.00;101655.72;5072777;28;20043;-77
2022/08/30 04:02:19;;;;;;;28.73;15.02;;;;;;;15.40;100.00;101647.75;5063508;28;20037;-77
2022/08/30 04:04:45;;;;;;;34.17;17.70;;;;;;;15.48;100.00;101651.72;5061399;28;20108;-77
2022/08/30 04:07:11;;;;;;;34.28;16.88;;;;;;;15.47;100.00;101656.38;5051757;28;20037;-77
2022/08/30 04:09:40;;;;;;;47.95;18.88;;;;;;;15.44;100.00;101648.38;5063366;28;20504;-77
2022/08/30 04:12:06;;;;;;;38.60;19.27;;;;;;;15.45;100.00;101650.13;5064480;28;20039;-77
2022/08/30 04:14:31;;;;;;;41.05;18.30;;;;;;;15.41;100.00;101648.63;5053520;28;20093;-77
2022/08/30 04:16:58;;;;;;;33.85;17.27;;;;;;;15.42;100.00;101650.38;5062388;28;20036;-77
2022/08/30 04:19:24;;;;;;;34.85;18.42;;;;;;;15.39;100.00;101640.47;5055204;28;20036;-77
2022/08/30 04:21:53;;;;;;;33.42;16.70;;;;;;;15.37;100.00;101647.16;5051955;28;20060;-77
2022/08/30 04:24:22;;;;;;;40.58;18.10;;;;;;;15.38;100.00;101649.78;5052994;28;20037;-77
2022/08/30 04:26:51;;;;;;;34.05;18.70;;;;;;;15.37;100.00;101655.44;5052817;28;20060;-77
2022/08/30 04:29:27;;;;;;;41.38;19.08;;;;;;;15.38;100.00;101655.31;5067735;28;20498;-76
2022/08/30 04:31:52;;;;;;;34.97;18.27;;;;;;;15.39;100.00;101657.03;5053820;28;20029;-76
2022/08/30 04:34:25;;;;;;;45.30;19.83;;;;;;;15.36;100.00;101659.19;5064635;28;20024;-77
2022/08/30 04:36:52;;;;;;;52.75;19.98;;;;;;;15.39;100.00;101654.28;5052164;28;20056;-76
2022/08/30 04:39:21;;;;;;;46.38;18.98;;;;;;;15.38;100.00;101663.59;5061019;28;20051;-76
2022/08/30 04:41:47;;;;;;;45.72;20.50;;;;;;;15.34;100.00;101666.75;5049158;28;20493;-77
2022/08/30 04:44:14;;;;;;;41.80;20.55;;;;;;;15.32;100.00;101666.00;5052049;28;20485;-77
2022/08/30 04:46:42;;;;;;;34.35;19.20;;;;;;;15.38;100.00;101662.69;5076842;28;20127;-77
2022/08/30 04:49:17;;;;;;;38.83;20.27;;;;;;;15.33;100.00;101664.97;5071961;28;20487;-76
2022/08/30 04:51:44;;;;;;;51.97;22.20;;;;;;;15.31;100.00;101667.00;5070619;28;20028;-76
2022/08/30 04:54:14;;;;;;;44.55;21.00;;;;;;;15.29;100.00;101669.03;5063583;28;20086;-76
2022/08/30 04:56:42;;;;;;;40.08;21.65;;;;;;;15.34;100.00;101677.78;5066449;28;20062;-76
2022/08/30 04:59:08;;;;;;;49.33;21.70;;;;;;;15.30;100.00;101673.50;5051052;28;20036;-77
2022/08/30 05:01:34;;;;;;;46.20;20.63;;;;;;;15.32;100.00;101675.16;5057204;28;20043;-77
2022/08/30 05:04:03;;;;;;;44.90;20.90;;;;;;;15.32;100.00;101669.63;5051346;28;20035;-76
2022/08/30 05:06:32;;;;;;;48.72;23.15;;;;;;;15.37;100.00;101677.50;5063772;28;20807;-76
2022/08/30 05:09:01;;;;;;;50.55;22.40;;;;;;;15.38;100.00;101671.88;5050975;28;20119;-76
2022/08/30 05:11:33;;;;;;;51.05;23.00;;;;;;;15.40;100.00;101671.72;5067195;28;20119;-76
2022/08/30 05:13:59;;;;;;;45.78;22.90;;;;;;;15.35;100.00;101679.53;5058194;28;20512;-77
2022/08/30 05:16:25;;;;;;;49.70;23.02;;;;;;;15.35;100.00;101674.03;5055872;28;20044;-76
2022/08/30 05:18:51;;;;;;;47.85;22.90;;;;;;;15.38;100.00;101690.28;5053619;28;20037;-76
2022/08/30 05:21:24;;;;;;;45.88;22.75;;;;;;;15.50;100.00;101692.00;5053228;28;20043;-77
2022/08/30 05:23:54;;;;;;;55.45;23.27;;;;;;;15.53;100.00;101680.69;5054147;28;20029;-77
2022/08/30 05:26:29;;;;;;;46.65;22.77;;;;;;;15.50;100.00;101688.38;5060498;28;20472;-77
2022/08/30 05:28:55;;;;;;;50.60;23.60;;;;;;;15.55;100.00;101695.22;5061801;28;20032;-76
2022/08/30 05:31:27;;;;;;;54.90;24.02;;;;;;;15.62;100.00;101692.81;5056140;28;20048;-77
2022/08/30 05:33:54;;;;;;;51.20;23.98;;;;;;;15.59;100.00;101696.72;5053656;28;20021;-76
2022/08/30 05:36:22;;;;;;;50.58;23.98;;;;;;;15.61;100.00;101702.97;5052368;28;20056;-77
2022/08/30 05:38:50;;;;;;;57.38;24.58;;;;;;;15.62;100.00;101698.31;5054612;28;20032;-76
2022/08/30 05:41:18;;;;;;;53.83;23.67;;;;;;;15.70;100.00;101705.94;5070348;28;20067;-76
2022/08/30 05:43:47;;;;;;;63.63;25.58;;;;;;;15.71;100.00;101707.69;5073366;28;20043;-76
2022/08/30 05:46:18;;;;;;;56.55;24.40;;;;;;;15.75;100.00;101695.38;5068271;28;20051;-76
2022/08/30 05:48:44;;;;;;;52.00;23.90;;;;;;;15.74;100.00;101696.38;5060770;28;20100;-76
2022/08/30 05:51:13;;;;;;;48.97;22.83;;;;;;;15.92;100.00;101703.09;5072280;28;20047;-76
2022/08/30 05:53:40;;;;;;;53.20;23.35;;;;;;;15.93;100.00;101695.66;5057012;28;20105;-76
2022/08/30 05:56:09;;;;;;;48.45;22.67;;;;;;;15.97;100.00;101699.91;5073289;28;20037;-77
2022/08/30 05:58:41;;;;;;;49.53;24.48;;;;;;;16.20;100.00;101705.25;5058246;28;20039;-77
2022/08/30 06:01:07;;;;;;;51.72;22.85;;;;;;;16.29;100.00;101702.56;5060156;28;20041;-77
2022/08/30 06:03:33;;;;;;;53.05;24.27;;;;;;;16.31;100.00;101703.28;5056486;28;21374;-76
2022/08/30 06:06:03;;;;;;;44.72;23.58;;;;;;;16.19;100.00;101706.28;5067308;28;20036;-76
2022/08/30 06:08:33;;;;;;;48.72;23.50;;;;;;;16.25;100.00;101711.25;5048892;28;20041;-77
2022/08/30 06:11:01;;;;;;;73.95;24.65;;;;;;;16.29;100.00;101712.75;5061865;28;20469;-76
2022/08/30 06:13:28;;;;;;;54.25;24.77;;;;;;;16.54;100.00;101714.16;5055002;28;20040;-76
2022/08/30 06:15:54;;;;;;;52.22;24.20;;;;;;;16.71;100.00;101718.16;5056180;28;20083;-76
2022/08/30 06:18:21;;;;;;;51.80;23.63;;;;;;;16.75;100.00;101716.84;5057300;28;20031;-76
2022/08/30 06:20:52;;;;;;;51.35;24.02;;;;;;;16.80;100.00;101708.13;5071770;28;20043;-77
2022/08/30 06:23:21;;;;;;;49.17;23.55;;;;;;;16.90;100.00;101707.19;5036479;28;20108;-77
2022/08/30 06:25:46;;;;;;;47.75;22.60;;;;;;;17.03;100.00;101706.03;5033347;28;20126;-77
2022/08/30 06:28:13;;;;;;;44.92;21.38;;;;;;;17.16;100.00;101714.06;5046441;28;20515;-77
2022/08/30 06:30:41;;;;;;;46.53;23.35;;;;;;;17.12;100.00;101724.56;5056065;28;20028;-76
2022/08/30 06:33:07;;;;;;;41.78;21.10;;;;;;;17.29;100.00;101722.97;5068121;28;20527;-77
2022/08/30 06:35:33;;;;;;;43.25;21.75;;;;;;;17.31;100.00;101712.63;5054595;28;20033;-76
2022/08/30 06:37:59;;;;;;;46.20;22.27;;;;;;;17.50;100.00;101717.31;5057604;28;20072;-77
2022/08/30 06:40:29;;;;;;;52.60;23.30;;;;;;;17.72;100.00;101712.47;5063559;28;20136;-77
2022/08/30 06:42:56;;;;;;;39.97;21.23;;;;;;;17.59;100.00;101710.91;5064673;28;20033;-77
2022/08/30 06:45:30;;;;;;;38.22;20.35;;;;;;;17.59;100.00;101708.13;5046723;28;20148;-77
2022/08/30 06:48:01;;;;;;;44.38;21.02;;;;;;;17.77;100.00;101708.25;5063468;28;20051;-77
2022/08/30 06:50:30;;;;;;;42.25;19.90;;;;;;;17.57;100.00;101712.91;5046277;28;20037;-78
2022/08/30 06:53:04;;;;;;;41.85;20.02;;;;;;;17.75;100.00;101717.72;5048669;28;20061;-77
2022/08/30 06:55:35;;;;;;;44.78;20.83;;;;;;;17.90;100.00;101716.25;5065198;28;20043;-77
2022/08/30 06:58:02;;;;;;;41.22;20.02;;;;;;;18.29;100.00;101715.31;5068271;28;20401;-77
2022/08/30 07:00:32;;;;;;;38.97;19.43;;;;;;;18.18;100.00;101713.56;5062366;28;20037;-77
2022/08/30 07:02:58;;;;;;;40.10;18.98;;;;;;;18.51;100.00;101714.03;5052732;28;20048;-77
2022/08/30 07:05:27;;;;;;;28.83;17.08;;;;;;;18.49;100.00;101716.09;5071550;28;20123;-76
2022/08/30 07:08:00;;;;;;;32.80;17.75;;;;;;;18.63;100.00;101714.75;5063160;28;20507;-77
2022/08/30 07:10:32;;;;;;;37.45;17.45;;;;;;;18.99;100.00;101709.28;5069061;28;20041;-77
2022/08/30 07:13:06;;;;;;;40.47;17.05;;;;;;;19.01;100.00;101718.38;5070467;28;20028;-77
2022/08/30 07:15:38;;;;;;;31.90;17.00;;;;;;;18.97;100.00;101725.25;5055667;28;20457;-77
2022/08/30 07:20:48;;;;;;;28.67;14.57;;;;;;;19.86;100.00;101721.66;5052431;28;20037;-76
2022/08/30 07:23:16;;;;;;;25.45;13.70;;;;;;;20.64;100.00;101729.13;5065165;28;20032;-78
2022/08/30 07:25:45;;;;;;;39.45;14.93;;;;;;;20.50;100.00;101729.75;5072747;28;20442;-77
2022/08/30 07:28:19;;;;;;;25.98;13.50;;;;;;;20.37;100.00;101728.25;5063014;28;20072;-77
2022/08/30 07:30:44;;;;;;;25.13;13.00;;;;;;;20.48;100.00;101732.69;5035943;28;20399;-77
2022/08/30 07:33:13;;;;;;;28.85;13.25;;;;;;;20.18;100.00;101725.69;5056906;28;20025;-76
2022/08/30 07:35:39;;;;;;;24.38;12.45;;;;;;;20.17;100.00;101726.75;5029524;28;1223719;-76
2022/08/30 07:38:14;;;;;;;25.40;12.70;;;;;;;20.24;100.00;101729.75;5070072;28;20039;-78
2022/08/30 07:40:47;;;;;;;26.23;12.88;;;;;;;20.42;100.00;101735.25;5076038;28;20049;-78
2022/08/30 07:43:22;;;;;;;33.75;12.30;;;;;;;20.59;100.00;101734.28;5062383;28;20044;-77
2022/08/30 07:45:48;;;;;;;28.20;12.40;;;;;;;20.88;100.00;101733.06;5054810;28;20405;-79
2022/08/30 07:48:14;;;;;;;26.17;11.20;;;;;;;21.47;100.00;101744.22;5053750;28;20040;-76
2022/08/30 07:50:43;;;;;;;26.98;11.18;;;;;;;20.56;100.00;101731.84;5069830;28;20484;-77
2022/08/30 07:53:10;;;;;;;24.00;10.98;;;;;;;20.90;100.00;101736.56;5061213;28;20107;-78
2022/08/30 07:55:39;;;;;;;19.38;9.82;;;;;;;20.68;100.00;101741.69;5064840;28;20029;-77
2022/08/30 07:58:07;;;;;;;22.08;9.80;;;;;;;21.21;100.00;101735.97;5055996;28;20029;-78
2022/08/30 08:00:32;;;;;;;19.80;9.02;;;;;;;21.13;100.00;101742.38;5053794;28;20025;-77
2022/08/30 08:03:06;;;;;;;17.10;9.20;;;;;;;21.12;100.00;101740.66;5073434;28;20091;-77
2022/08/30 08:05:40;;;;;;;16.38;8.70;;;;;;;21.90;100.00;101746.91;5053937;28;20037;-77
2022/08/30 08:08:07;;;;;;;18.65;9.57;;;;;;;21.41;100.00;101744.88;5065252;28;20411;-77
2022/08/30 08:10:36;;;;;;;24.33;10.40;;;;;;;21.23;100.00;101731.09;5063315;28;20039;-78
2022/08/30 08:13:03;;;;;;;15.73;9.57;;;;;;;21.52;100.00;101736.25;5053980;28;20048;-77
2022/08/30 08:15:28;;;;;;;20.30;9.95;;;;;;;21.44;100.00;101736.19;5059628;28;20043;-77
2022/08/30 08:17:56;;;;;;;25.40;9.43;;;;;;;21.49;100.00;101736.56;5069167;28;20755;-77
2022/08/30 08:20:24;;;;;;;16.52;8.52;;;;;;;21.82;100.00;101736.59;5052315;28;20120;-77
2022/08/30 08:22:59;;;;;;;24.65;8.80;;;;;;;21.82;100.00;101743.06;5059002;28;20045;-77
2022/08/30 08:25:25;;;;;;;22.30;8.35;;;;;;;21.56;100.00;101746.00;5038513;28;20044;-77
2022/08/30 08:27:51;;;;;;;13.48;7.68;;;;;;;21.69;100.00;101748.25;5067157;28;20036;-77
2022/08/30 08:30:19;;;;;;;17.27;7.45;;;;;;;21.79;100.00;101750.88;5053323;28;20089;-77
2022/08/30 08:32:51;;;;;;;16.85;7.80;;;;;;;22.03;100.00;101745.31;5064831;28;20037;-77
2022/08/30 08:35:20;;;;;;;17.58;7.55;;;;;;;22.14;100.00;101754.38;5074755;28;20071;-78
2022/08/30 08:37:46;;;;;;;21.15;7.68;;;;;;;21.95;100.00;101758.41;5068524;28;20036;-78
2022/08/30 08:40:18;;;;;;;12.88;7.28;;;;;;;21.97;100.00;101742.34;5072424;28;20032;-78
2022/08/30 08:43:00;;;;;;;13.98;5.72;;;;;;;22.48;100.00;101750.50;5045331;28;20040;-78
2022/08/30 08:45:32;;;;;;;18.13;5.78;;;;;;;22.78;100.00;101753.56;5063045;28;20047;-78
2022/08/30 08:48:07;;;;;;;8.77;5.95;;;;;;;22.70;100.00;101749.75;5070542;28;20111;-78
2022/08/30 08:50:36;;;;;;;10.75;6.10;;;;;;;22.88;100.00;101751.44;5077157;28;20028;-79
2022/08/30 08:55:55;;;;;;;11.52;5.38;;;;;;;23.11;100.00;101762.72;5058037;28;20484;-79
2022/08/30 08:58:48;;;;;;;10.40;5.20;;;;;;;23.43;100.00;101761.66;5036482;28;20048;-78
2022/08/30 09:01:17;;;;;;;11.10;5.30;;;;;;;23.31;100.00;101754.72;5048312;28;20045;-78
2022/08/30 09:03:43;;;;;;;9.98;3.83;;;;;;;23.91;100.00;101755.03;5056398;28;20051;-78
2022/08/30 09:06:18;;;;;;;5.47;3.92;;;;;;;23.84;100.00;101752.13;5056790;28;20052;-79
2022/08/30 09:08:48;;;;;;;6.57;3.90;;;;;;;24.04;100.00;101752.50;5048064;28;20044;-79
2022/08/30 09:11:27;;;;;;;14.85;4.50;;;;;;;23.78;100.00;101742.53;5060369;28;20082;-78
2022/08/30 09:13:53;;;;;;;12.30;4.03;;;;;;;23.87;100.00;101736.91;5066088;28;20037;-78
2022/08/30 09:16:55;;;;;;;8.40;4.38;;;;;;;23.53;100.00;101735.38;5050635;28;20028;-78
2022/08/30 09:19:40;;;;;;;18.48;4.50;;;;;;;23.34;100.00;101739.53;5083510;28;20036;-78
2022/08/30 09:22:21;;;;;;;9.25;4.40;;;;;;;23.03;100.00;101743.16;5077975;28;20028;-78
2022/08/30 09:24:59;;;;;;;10.15;4.55;;;;;;;23.59;100.00;101735.50;5064164;28;20024;-78
2022/08/30 09:27:42;;;;;;;6.70;3.55;;;;;;;24.17;100.00;101744.31;5070379;28;20040;-78
2022/08/30 09:30:20;;;;;;;7.45;3.47;;;;;;;24.74;100.00;101737.25;5072706;28;20032;-79
2022/08/30 09:33:02;;;;;;;15.70;3.40;;;;;;;24.07;100.00;101737.22;5063685;28;20032;-78
2022/08/30 09:35:48;;;;;;;10.10;2.88;;;;;;;24.29;99.16;101738.25;5066762;28;20507;-78
2022/08/30 09:38:26;;;;;;;10.73;3.28;;;;;;;24.19;100.00;101742.19;5054443;28;20040;-78
2022/08/30 09:40:55;;;;;;;14.48;2.75;;;;;;;24.20;100.00;101743.94;5047899;28;20033;-79
2022/08/30 09:43:29;;;;;;;;;;;;;;;24.53;96.99;101743.59;5068624;28;20029;-79
2022/08/30 09:45:59;;;;;;;10.43;3.10;;;;;;;24.43;98.46;101751.38;5063038;28;19908;-78
2022/08/30 09:48:39;;;;;;;12.45;3.10;;;;;;;24.59;95.30;101739.19;5075770;28;20295;-78
2022/08/30 09:51:09;;;;;;;4.25;2.17;;;;;;;25.05;92.64;101738.94;5065633;28;20103;-78
2022/08/30 09:53:59;;;;;;;6.75;3.20;;;;;;;24.57;91.53;101728.16;5068191;28;20092;-79
2022/08/30 09:56:41;;;;;;;6.60;3.42;;;;;;;24.23;94.45;101731.47;5061129;28;20093;-78
2022/08/30 09:59:16;;;;;;;9.02;2.75;;;;;;;24.76;92.50;101735.13;5062643;28;20071;-78
2022/08/30 10:01:50;;;;;;;6.38;2.50;;;;;;;24.83;93.56;101746.41;5058284;28;20526;-78
2022/08/30 10:04:31;;;;;;;7.05;2.47;;;;;;;25.06;89.51;101743.50;5074021;28;20021;-79
2022/08/30 10:07:12;;;;;;;8.65;2.95;;;;;;;24.92;92.01;101733.16;5068321;28;20476;-77
2022/08/30 10:10:24;;;;;;;10.25;2.60;;;;;;;24.96;88.08;101726.13;5069541;28;20025;-78
2022/08/30 10:13:35;;;;;;;5.03;2.40;;;;;;;24.55;91.24;101735.91;5067962;28;20123;-77
2022/08/30 10:16:24;;;;;;;9.13;2.58;;;;;;;25.22;88.62;101736.81;5032223;28;20112;-77
2022/08/30 10:19:23;;;;;;;5.13;2.05;;;;;;;25.24;88.37;101731.84;5052381;28;20044;-77
2022/08/30 10:22:01;;;;;;;9.65;2.30;;;;;;;25.42;86.74;101737.06;5052429;28;20377;-76
2022/08/30 10:24:39;;;;;;;7.78;1.88;;;;;;;25.32;88.30;101733.72;5051127;28;20028;-77
2022/08/30 10:27:10;;;;;;;9.70;2.70;;;;;;;25.22;86.41;101727.50;5057236;28;20476;-77
2022/08/30 10:30:01;;;;;;;10.88;1.98;;;;;;;24.89;89.73;101727.94;5058242;28;20036;-77
2022/08/30 10:32:52;;;;;;;5.85;1.92;;;;;;;25.16;85.42;101733.91;5071813;28;20067;-77
2022/08/30 10:35:27;;;;;;;9.35;1.52;;;;;;;25.29;87.68;101732.16;5056345;28;20036;-77
2022/08/30 10:38:17;;;;;;;7.20;1.67;;;;;;;25.88;82.67;101727.38;5072417;28;20457;-77
2022/08/30 10:41:15;;;;;;;6.05;1.98;;;;;;;25.65;84.26;101730.41;5057821;28;20036;-78
2022/08/30 10:44:23;;;;;;;3.05;1.67;;;;;;;25.86;83.49;101727.59;5068719;28;20403;-77
2022/08/30 10:47:13;;;;;;;4.88;1.85;;;;;;;25.78;80.84;101726.88;5056040;28;20032;-78
2022/08/30 10:49:48;;;;;;;5.28;1.50;;;;;;;25.62;76.37;101719.56;5057766;28;20373;-77
2022/08/30 10:52:26;;;;;;;10.70;1.70;;;;;;;25.83;76.77;101721.50;5069716;28;20033;-77
2022/08/30 10:55:12;;;;;;;3.10;1.42;;;;;;;25.25;76.58;101716.78;5068983;28;20044;-77
2022/08/30 10:57:38;;;;;;;3.20;1.30;;;;;;;25.11;77.07;101701.72;5059903;28;20048;-77
2022/08/30 11:00:11;;;;;;;8.25;1.70;;;;;;;25.17;76.23;101713.22;5059340;28;20082;-77
2022/08/30 11:03:14;;;;;;;7.88;1.25;;;;;;;25.06;75.50;101711.81;5067990;28;20029;-77
2022/08/30 11:06:30;;;;;;;5.65;1.65;;;;;;;25.19;74.03;101717.56;5075107;28;20024;-77
2022/08/30 11:09:08;;;;;;;4.38;1.45;;;;;;;25.46;72.65;101710.34;4955864;28;20501;-77
2022/08/30 11:12:03;;;;;;;9.82;1.70;;;;;;;25.34;72.86;101708.28;4974343;28;20033;-77
2022/08/30 11:14:31;;;;;;;5.25;1.42;;;;;;;25.63;73.31;101712.88;5058380;28;20479;-77
2022/08/30 11:17:00;;;;;;;9.60;1.50;;;;;;;25.31;73.95;101710.41;5071406;28;20032;-77
2022/08/30 11:19:28;;;;;;;6.38;1.38;;;;;;;25.06;75.20;101698.66;5073335;28;20041;-77
2022/08/30 11:22:14;;;;;;;7.47;1.10;;;;;;;25.60;74.62;101699.28;5057614;28;20061;-77
2022/08/30 11:25:13;;;;;;;7.68;1.40;;;;;;;25.83;72.01;101715.91;5057037;28;20041;-77
2022/08/30 11:27:55;;;;;;;7.32;1.20;;;;;;;25.55;74.29;101707.41;5057471;28;20491;-77
2022/08/30 11:30:24;;;;;;;8.15;1.45;;;;;;;25.58;72.03;101707.00;5053341;28;20032;-77
2022/08/30 11:32:58;;;;;;;7.90;1.40;;;;;;;25.27;72.17;101719.44;5072573;28;20033;-77
2022/08/30 11:35:36;;;;;;;6.85;1.50;;;;;;;24.93;72.97;101713.34;5075340;28;20020;-77